Time;durP1;ratioP1;P1;durP2;ratioP2;P2;SDS_P1;SDS_P2;PMS_P1;PMS_P2;Temp;Humidity;BMP_temperature;BMP_pressure;BME280_temperature;BME280_humidity;BME280_pressure;Samples;Min_cycle;Max_cycle;Signal;HPM_P1;HPM_P2
2022/03/29 00:02:02;;;;;;;;;;;7.30;99.90;;;;;;5029189;28;20444;-70
2022/03/29 00:04:27;;;;;;;;;;;7.30;99.90;;;;;;5012585;28;20001;-71
2022/03/29 00:06:54;;;;;;;;;;;7.30;99.90;;;;;;5028307;28;20391;-71
2022/03/29 00:09:19;;;;;;;;;;;7.30;99.90;;;;;;5013416;28;19969;-70
2022/03/29 00:11:45;;;;;;;;;;;7.30;99.90;;;;;;5028417;28;19965;-71
2022/03/29 00:14:12;;;;;;;;;;;7.30;99.90;;;;;;5028237;28;20491;-71
2022/03/29 00:16:38;;;;;;;;;;;7.30;99.90;;;;;;5027979;28;20014;-70
2022/03/29 00:19:03;;;;;;;;;;;7.30;99.90;;;;;;5012705;28;20002;-70
2022/03/29 00:21:29;;;;;;;;;;;7.30;99.90;;;;;;5013090;28;19928;-70
2022/03/29 00:23:54;;;;;;;;;;;7.30;99.90;;;;;;5012652;28;19929;-70
2022/03/29 00:26:20;;;;;;;;;;;7.30;99.90;;;;;;5028363;28;19925;-71
2022/03/29 00:28:47;;;;;;;;;;;7.30;99.90;;;;;;5013469;28;19974;-70
2022/03/29 00:31:14;;;;;;;;;;;7.30;99.90;;;;;;5027795;28;19921;-70
2022/03/29 00:33:40;;;;;;;;;;;7.30;99.90;;;;;;5013288;28;19921;-71
2022/03/29 00:36:05;;;;;;;;;;;7.30;99.90;;;;;;5028206;28;19929;-71
2022/03/29 00:38:31;;;;;;;;;;;7.30;99.90;;;;;;5012411;28;19952;-71
2022/03/29 00:40:58;;;;;;;;;;;7.30;99.90;;;;;;5013290;28;19921;-70
2022/03/29 00:43:23;;;;;;;;;;;7.20;99.90;;;;;;5027883;28;20351;-70
2022/03/29 00:45:49;;;;;;;;;;;7.30;99.90;;;;;;5012148;28;19921;-71
2022/03/29 00:48:15;;;;;;;;;;;7.20;99.90;;;;;;5012890;28;19922;-71
2022/03/29 00:50:47;;;;;;;;;;;7.20;99.90;;;;;;5013360;28;19928;-70
2022/03/29 00:53:13;;;;;;;;;;;7.20;99.90;;;;;;5027698;28;19968;-71
2022/03/29 00:55:39;;;;;;;;;;;7.30;99.90;;;;;;5012637;28;19969;-71
2022/03/29 00:58:06;;;;;;;;;;;7.30;99.90;;;;;;5013106;28;20027;-71
2022/03/29 01:00:33;;;;;;;;;;;7.30;99.90;;;;;;5012173;28;19969;-71
2022/03/29 01:03:01;;;;;;;;;;;7.30;99.90;;;;;;5012239;28;19929;-71
2022/03/29 01:05:26;;;;;;;;;;;7.30;99.90;;;;;;5012734;28;19960;-71
2022/03/29 01:07:55;;;;;;;;;;;7.30;99.90;;;;;;5012561;28;19960;-71
2022/03/29 01:10:21;;;;;;;;;;;7.30;99.90;;;;;;5027623;28;20036;-71
2022/03/29 01:12:47;;;;;;;;;;;7.30;99.90;;;;;;5028367;28;20455;-71
2022/03/29 01:15:12;;;;;;;;;;;7.30;99.90;;;;;;5012427;28;19925;-71
2022/03/29 01:17:41;;;;;;;;;;;7.30;99.90;;;;;;5013393;28;19979;-70
2022/03/29 01:20:09;;;;;;;;;;;7.30;99.90;;;;;;5015979;28;19921;-71
2022/03/29 01:22:35;;;;;;;;;;;7.30;99.90;;;;;;5031626;28;19921;-71
2022/03/29 01:25:01;;;;;;;;;;;7.30;99.90;;;;;;5016498;28;20090;-71
2022/03/29 01:27:30;;;;;;;;;;;7.20;99.90;;;;;;5015897;28;19925;-71
2022/03/29 01:29:59;;;;;;;;;;;7.20;99.90;;;;;;5031445;28;19928;-71
2022/03/29 01:32:28;;;;;;;;;;;7.20;99.90;;;;;;5014342;28;19928;-71
2022/03/29 01:34:54;;;;;;;;;;;7.20;99.90;;;;;;5031256;28;20364;-71
2022/03/29 01:37:20;;;;;;;;;;;7.20;99.90;;;;;;5016170;28;19929;-71
2022/03/29 01:39:45;;;;;;;;;;;7.10;99.90;;;;;;5031711;28;20383;-71
2022/03/29 01:42:11;;;;;;;;;;;7.10;99.90;;;;;;5015680;28;19940;-71
2022/03/29 01:44:37;;;;;;;;;;;7.10;99.90;;;;;;5015934;28;20024;-71
2022/03/29 01:47:03;;;;;;;;;;;7.10;99.90;;;;;;5031390;28;20004;-70
2022/03/29 01:49:28;;;;;;;;;;;7.10;99.90;;;;;;5030246;28;19956;-71
2022/03/29 01:51:55;;;;;;;;;;;7.10;99.90;;;;;;5016048;28;19929;-71
2022/03/29 01:54:20;;;;;;;;;;;7.00;99.90;;;;;;5015966;28;19976;-71
2022/03/29 01:56:46;;;;;;;;;;;7.00;99.90;;;;;;5030609;28;20388;-71
2022/03/29 01:59:11;;;;;;;;;;;7.00;99.90;;;;;;5015750;28;19932;-71
2022/03/29 02:01:44;;;;;;;;;;;7.00;99.90;;;;;;5015551;28;19921;-70
2022/03/29 02:04:10;;;;;;;;;;;7.00;99.90;;;;;;5015187;28;20015;-70
2022/03/29 02:06:35;;;;;;;;;;;7.00;99.90;;;;;;5015153;28;19921;-70
2022/03/29 02:09:02;;;;;;;;;;;7.00;99.90;;;;;;5015865;28;20406;-71
2022/03/29 02:11:28;;;;;;;;;;;7.00;99.90;;;;;;5014770;28;19998;-71
2022/03/29 02:13:56;;;;;;;;;;;7.00;99.90;;;;;;5015640;28;20408;-71
2022/03/29 02:16:22;;;;;;;;;;;7.00;99.90;;;;;;5029638;28;19983;-70
2022/03/29 02:18:47;;;;;;;;;;;7.00;99.90;;;;;;5015151;28;20008;-71
2022/03/29 02:21:13;;;;;;;;;;;7.00;99.90;;;;;;5015551;28;19924;-71
2022/03/29 02:23:39;;;;;;;;;;;7.00;99.90;;;;;;5014756;28;19921;-71
2022/03/29 02:26:04;;;;;;;;;;;7.00;99.90;;;;;;5030804;28;19924;-70
2022/03/29 02:28:30;;;;;;;;;;;7.00;99.90;;;;;;5015180;28;19931;-71
2022/03/29 02:30:55;;;;;;;;;;;7.00;99.90;;;;;;5014693;28;19929;-71
2022/03/29 02:33:21;;;;;;;;;;;7.00;99.90;;;;;;5029973;28;19921;-71
2022/03/29 02:35:47;;;;;;;;;;;7.00;99.90;;;;;;5015062;28;19922;-71
2022/03/29 02:38:13;;;;;;;;;;;7.00;99.90;;;;;;5014635;28;19927;-71
2022/03/29 02:40:42;;;;;;;;;;;7.00;99.90;;;;;;5030029;28;19921;-71
2022/03/29 02:43:07;;;;;;;;;;;7.00;99.90;;;;;;5030452;28;19921;-71
2022/03/29 02:45:33;;;;;;;;;;;7.00;99.90;;;;;;5029741;28;19928;-70
2022/03/29 02:47:58;;;;;;;;;;;7.10;99.90;;;;;;5014673;28;19921;-70
2022/03/29 02:50:24;;;;;;;;;;;7.00;99.90;;;;;;5014767;28;20331;-72
2022/03/29 02:52:54;;;;;;;;;;;7.00;99.90;;;;;;5029030;28;19921;-71
2022/03/29 02:55:20;;;;;;;;;;;7.00;99.90;;;;;;5029808;28;19928;-71
2022/03/29 02:57:46;;;;;;;;;;;7.00;99.90;;;;;;5030243;28;19925;-71
2022/03/29 03:00:15;;;;;;;;;;;7.10;99.90;;;;;;5029857;28;19975;-71
2022/03/29 03:02:41;;;;;;;;;;;7.10;99.90;;;;;;5029626;28;19925;-70
2022/03/29 03:05:08;;;;;;;;;;;7.10;99.90;;;;;;5030226;28;20391;-71
2022/03/29 03:07:34;;;;;;;;;;;7.00;99.90;;;;;;5013642;28;19928;-71
2022/03/29 03:09:59;;;;;;;;;;;7.00;99.90;;;;;;5014487;28;20007;-71
2022/03/29 03:12:25;;;;;;;;;;;7.00;99.90;;;;;;5014231;28;19925;-71
2022/03/29 03:14:51;;;;;;;;;;;7.00;99.90;;;;;;5029216;28;19921;-71
2022/03/29 03:17:16;;;;;;;;;;;7.00;99.90;;;;;;5014218;28;19927;-71
2022/03/29 03:19:44;;;;;;;;;;;7.00;99.90;;;;;;5028687;28;19918;-71
2022/03/29 03:22:10;;;;;;;;;;;7.00;99.90;;;;;;5014481;28;19956;-71
2022/03/29 03:24:36;;;;;;;;;;;7.00;99.90;;;;;;5029261;28;20403;-71
2022/03/29 03:27:02;;;;;;;;;;;7.00;99.90;;;;;;5013864;28;19964;-71
2022/03/29 03:29:27;;;;;;;;;;;7.00;99.90;;;;;;5013951;28;19972;-71
2022/03/29 03:31:52;;;;;;;;;;;6.90;99.90;;;;;;5029732;28;20004;-71
2022/03/29 03:34:18;;;;;;;;;;;7.00;99.90;;;;;;5013112;28;19921;-71
2022/03/29 03:36:44;;;;;;;;;;;7.00;99.90;;;;;;5028904;28;19925;-71
2022/03/29 03:39:09;;;;;;;;;;;7.00;99.90;;;;;;5014096;28;19921;-71
2022/03/29 03:41:37;;;;;;;;;;;7.00;99.90;;;;;;5012730;28;19944;-71
2022/03/29 03:44:03;;;;;;;;;;;7.00;99.90;;;;;;5014032;28;20304;-71
2022/03/29 03:46:29;;;;;;;;;;;7.00;99.90;;;;;;5013558;28;20008;-71
2022/03/29 03:48:54;;;;;;;;;;;7.00;99.90;;;;;;5013236;28;19968;-71
2022/03/29 03:51:20;;;;;;;;;;;7.00;99.90;;;;;;5013585;28;19925;-71
2022/03/29 03:53:45;;;;;;;;;;;6.90;99.90;;;;;;5013706;28;20353;-71
2022/03/29 03:56:11;;;;;;;;;;;6.90;99.90;;;;;;5013305;28;19993;-70
2022/03/29 03:58:36;;;;;;;;;;;7.00;99.90;;;;;;5013025;28;20430;-71
2022/03/29 04:01:02;;;;;;;;;;;7.00;99.90;;;;;;5014063;28;19932;-70
2022/03/29 04:03:27;;;;;;;;;;;7.00;99.90;;;;;;5027978;28;20270;-71
2022/03/29 04:05:53;;;;;;;;;;;7.00;99.90;;;;;;5028534;28;19927;-70
2022/03/29 04:08:18;;;;;;;;;;;7.00;99.90;;;;;;5013015;28;19929;-71
2022/03/29 04:10:44;;;;;;;;;;;7.00;99.90;;;;;;5012927;28;19961;-71
2022/03/29 04:13:09;;;;;;;;;;;7.00;99.90;;;;;;5013785;28;19921;-71
2022/03/29 04:15:35;;;;;;;;;;;7.00;99.90;;;;;;5028072;28;20360;-71
2022/03/29 04:18:01;;;;;;;;;;;6.90;99.90;;;;;;5012925;28;19921;-71
2022/03/29 04:20:27;;;;;;;;;;;6.90;99.90;;;;;;5027824;28;20297;-71
2022/03/29 04:22:53;;;;;;;;;;;6.90;99.90;;;;;;5013343;28;19921;-71
2022/03/29 04:25:18;;;;;;;;;;;6.90;99.90;;;;;;5027729;28;20295;-71
2022/03/29 04:27:44;;;;;;;;;;;6.90;99.90;;;;;;5024707;28;20491;-71
2022/03/29 04:30:10;;;;;;;;;;;7.00;99.90;;;;;;5012066;28;19921;-71
2022/03/29 04:32:36;;;;;;;;;;;6.90;99.90;;;;;;5013524;28;20403;-71
2022/03/29 04:35:02;;;;;;;;;;;7.00;99.90;;;;;;5007439;28;20285;-70
2022/03/29 04:37:27;;;;;;;;;;;7.00;99.90;;;;;;5007838;28;19952;-71
2022/03/29 04:39:53;;;;;;;;;;;7.00;99.90;;;;;;5008698;28;19925;-70
2022/03/29 04:42:19;;;;;;;;;;;7.00;99.90;;;;;;5009040;28;19933;-70
2022/03/29 04:44:45;;;;;;;;;;;7.00;99.90;;;;;;5023887;28;20292;-70
2022/03/29 04:47:10;;;;;;;;;;;7.00;99.90;;;;;;5022623;28;19921;-70
2022/03/29 04:49:36;;;;;;;;;;;6.90;99.90;;;;;;5027705;28;19983;-71
2022/03/29 04:52:02;;;;;;;;;;;7.00;99.90;;;;;;5029837;28;19932;-71
2022/03/29 04:54:28;;;;;;;;;;;7.00;99.90;;;;;;5014776;28;20367;-70
2022/03/29 04:56:53;;;;;;;;;;;6.90;99.90;;;;;;5023566;28;20388;-71
2022/03/29 04:59:19;;;;;;;;;;;6.90;99.90;;;;;;5034140;28;19928;-71
2022/03/29 05:01:45;;;;;;;;;;;6.90;99.90;;;;;;5032378;28;20349;-71
2022/03/29 05:04:10;;;;;;;;;;;6.90;99.90;;;;;;5031891;28;19928;-71
2022/03/29 05:06:36;;;;;;;;;;;6.90;99.90;;;;;;5015281;28;19922;-70
2022/03/29 05:09:04;;;;;;;;;;;6.90;99.90;;;;;;5032106;28;20382;-72
2022/03/29 05:11:30;;;;;;;;;;;6.90;99.90;;;;;;5016581;28;19928;-72
2022/03/29 05:13:55;;;;;;;;;;;6.90;99.90;;;;;;5031422;28;19921;-72
2022/03/29 05:16:21;;;;;;;;;;;6.90;99.90;;;;;;5015703;28;20276;-75
2022/03/29 05:18:47;;;;;;;;;;;6.90;99.90;;;;;;5042041;28;19928;-76
2022/03/29 05:21:13;;;;;;;;;;;6.90;99.90;;;;;;5025083;28;20364;-75
2022/03/29 05:23:38;;;;;;;;;;;6.90;99.90;;;;;;5042547;28;19921;-73
2022/03/29 05:26:04;;;;;;;;;;;6.60;99.90;;;;;;5035919;28;20280;-71
2022/03/29 05:28:29;;;;;;;;;;;6.90;99.90;;;;;;5034058;28;19975;-71
2022/03/29 05:30:55;;;;;;;;;;;6.90;99.90;;;;;;5021395;28;19974;-72
2022/03/29 05:33:21;;;;;;;;;;;6.80;99.90;;;;;;5015209;28;19987;-73
2022/03/29 05:35:46;;;;;;;;;;;6.90;99.90;;;;;;5031149;28;19943;-69
2022/03/29 05:38:12;;;;;;;;;;;6.90;99.90;;;;;;5031100;28;19921;-70
2022/03/29 05:40:38;;;;;;;;;;;6.90;99.90;;;;;;5030776;28;19921;-69
2022/03/29 05:43:07;;;;;;;;;;;6.90;99.90;;;;;;5015695;28;19921;-70
2022/03/29 05:45:33;;;;;;;;;;;6.90;99.90;;;;;;5013523;28;19921;-71
2022/03/29 05:50:42;;;;;;;;;;;6.90;99.90;;;;;;5016375;28;19921;-76
2022/03/29 05:53:08;;;;;;;;;;;6.90;99.90;;;;;;5044308;28;19928;-73
2022/03/29 05:55:34;;;;;;;;;;;6.90;99.90;;;;;;5026114;28;20501;-72
2022/03/29 05:58:00;;;;;;;;;;;6.80;99.90;;;;;;5035898;28;19921;-78
2022/03/29 06:00:26;;;;;;;;;;;6.90;99.90;;;;;;5014869;28;19975;-71
2022/03/29 06:02:53;;;;;;;;;;;6.90;99.90;;;;;;5014292;28;20130;-73
2022/03/29 06:05:18;;;;;;;;;;;6.90;99.90;;;;;;5015033;28;20008;-73
2022/03/29 06:07:44;;;;;;;;;;;6.90;99.90;;;;;;5015672;28;20008;-73
2022/03/29 06:10:11;;;;;;;;;;;6.90;99.90;;;;;;5040059;28;19928;-76
2022/03/29 06:12:36;;;;;;;;;;;6.90;99.90;;;;;;5034745;28;19928;-72
2022/03/29 06:15:06;;;;;;;;;;;6.90;99.90;;;;;;5031569;28;19925;-82
2022/03/29 06:17:31;;;;;;;;;;;6.90;99.90;;;;;;5012493;28;19925;-72
2022/03/29 06:19:57;;;;;;;;;;;6.90;99.90;;;;;;5018767;28;19928;-84
2022/03/29 06:22:23;;;;;;;;;;;6.90;99.90;;;;;;5015729;28;19928;-76
2022/03/29 06:24:48;;;;;;;;;;;6.90;99.90;;;;;;5014597;28;20288;-72
2022/03/29 06:27:14;;;;;;;;;;;7.00;99.90;;;;;;5013467;28;19997;-71
2022/03/29 06:29:40;;;;;;;;;;;7.00;99.90;;;;;;5011068;28;19921;-73
2022/03/29 06:32:05;;;;;;;;;;;7.00;99.90;;;;;;5027409;28;20292;-73
2022/03/29 06:34:31;;;;;;;;;;;7.10;99.90;;;;;;5013875;28;19921;-72
2022/03/29 06:36:56;;;;;;;;;;;7.10;99.90;;;;;;5029380;28;19921;-71
2022/03/29 06:39:22;;;;;;;;;;;7.10;99.90;;;;;;5006690;28;20012;-73
2022/03/29 06:41:48;;;;;;;;;;;7.10;99.90;;;;;;5009926;28;19972;-72
2022/03/29 06:44:14;;;;;;;;;;;7.10;99.90;;;;;;5011654;28;20295;-73
2022/03/29 06:46:39;;;;;;;;;;;7.20;99.90;;;;;;5029739;28;19932;-72
2022/03/29 06:49:06;;;;;;;;;;;7.20;99.90;;;;;;5014897;28;19921;-74
2022/03/29 06:51:35;;;;;;;;;;;7.20;99.90;;;;;;5013601;28;19921;-75
2022/03/29 06:54:01;;;;;;;;;;;7.20;99.90;;;;;;5014387;28;20016;-74
2022/03/29 06:56:28;;;;;;;;;;;7.30;99.90;;;;;;5029331;28;20375;-73
2022/03/29 06:58:54;;;;;;;;;;;7.30;99.90;;;;;;5029183;28;19925;-73
2022/03/29 07:01:19;;;;;;;;;;;7.30;99.90;;;;;;5014548;28;19917;-73
2022/03/29 07:03:45;;;;;;;;;;;7.30;99.90;;;;;;5013151;28;19921;-74
2022/03/29 07:06:10;;;;;;;;;;;7.30;99.90;;;;;;5013610;28;19929;-73
2022/03/29 07:11:15;;;;;;;;;;;7.40;99.90;;;;;;5029329;28;19924;-73
2022/03/29 07:11:24;;;;;;;;;;;7.40;99.90;;;;;;5029535;28;19929;-74
2022/03/29 07:13:50;;;;;;;;;;;7.40;99.90;;;;;;5013244;28;20365;-74
2022/03/29 07:16:16;;;;;;;;;;;7.40;99.90;;;;;;5012946;28;19955;-74
2022/03/29 07:18:41;;;;;;;;;;;7.50;99.90;;;;;;5014567;28;20447;-74
2022/03/29 07:21:07;;;;;;;;;;;7.50;99.90;;;;;;5028760;28;19922;-74
2022/03/29 07:23:33;;;;;;;;;;;7.50;99.90;;;;;;5013776;28;19964;-74
2022/03/29 07:25:58;;;;;;;;;;;7.50;99.90;;;;;;5028369;28;19921;-74
2022/03/29 07:28:24;;;;;;;;;;;7.60;99.90;;;;;;5015512;28;19989;-74
2022/03/29 07:30:51;;;;;;;;;;;7.60;99.90;;;;;;5023521;28;19932;-73
2022/03/29 07:33:19;;;;;;;;;;;7.70;99.90;;;;;;5018265;28;19925;-74
2022/03/29 07:35:45;;;;;;;;;;;7.70;99.90;;;;;;5013647;28;19921;-74
2022/03/29 07:38:11;;;;;;;;;;;7.70;99.90;;;;;;5030748;28;19921;-73
2022/03/29 07:40:38;;;;;;;;;;;7.70;99.90;;;;;;5030261;28;20004;-74
2022/03/29 07:43:04;;;;;;;;;;;8.10;99.90;;;;;;5028682;28;19983;-73
2022/03/29 07:45:30;;;;;;;;;;;8.50;99.90;;;;;;5045218;28;19924;-72
2022/03/29 07:47:58;;;;;;;;;;;7.70;99.90;;;;;;5022518;28;20335;-74
2022/03/29 07:50:25;;;;;;;;;;;7.70;99.90;;;;;;5013248;28;19929;-73
2022/03/29 07:52:50;;;;;;;;;;;7.70;99.90;;;;;;5028214;28;19922;-72
2022/03/29 07:55:17;;;;;;;;;;;7.70;99.90;;;;;;5023968;28;19928;-73
2022/03/29 07:57:42;;;;;;;;;;;7.70;99.90;;;;;;5026575;28;19971;-72
2022/03/29 08:02:53;;;;;;;;;;;7.80;99.90;;;;;;5021168;28;19964;-72
2022/03/29 08:05:19;;;;;;;;;;;7.80;99.90;;;;;;5013209;28;20361;-72
2022/03/29 08:07:45;;;;;;;;;;;7.90;99.90;;;;;;5012827;28;20016;-72
2022/03/29 08:10:11;;;;;;;;;;;7.90;99.90;;;;;;5027597;28;19932;-72
2022/03/29 08:12:37;;;;;;;;;;;7.90;99.90;;;;;;5012586;28;19921;-72
2022/03/29 08:15:05;;;;;;;;;;;7.90;99.90;;;;;;5012782;28;20367;-73
2022/03/29 08:17:30;;;;;;;;;;;7.90;99.90;;;;;;5012505;28;19944;-73
2022/03/29 08:19:56;;;;;;;;;;;8.00;99.90;;;;;;5013267;28;20372;-73
2022/03/29 08:22:22;;;;;;;;;;;8.00;99.90;;;;;;5010840;28;19930;-73
2022/03/29 08:24:47;;;;;;;;;;;8.10;99.90;;;;;;5025389;28;19929;-73
2022/03/29 08:27:15;;;;;;;;;;;8.20;99.90;;;;;;5008003;28;19993;-73
2022/03/29 08:29:41;;;;;;;;;;;8.90;99.90;;;;;;5008817;28;19921;-73
2022/03/29 08:32:07;;;;;;;;;;;8.30;99.90;;;;;;5007891;28;19929;-71
2022/03/29 08:34:33;;;;;;;;;;;8.30;99.90;;;;;;5009904;28;19926;-73
2022/03/29 08:36:58;;;;;;;;;;;8.40;99.90;;;;;;5010231;28;19922;-71
2022/03/29 08:39:24;;;;;;;;;;;8.40;99.90;;;;;;5008257;28;19929;-71
2022/03/29 08:41:52;;;;;;;;;;;8.60;99.90;;;;;;5011882;28;20422;-71
2022/03/29 08:44:18;;;;;;;;;;;9.30;99.90;;;;;;5010817;28;19921;-71
2022/03/29 08:46:46;;;;;;;;;;;8.70;99.90;;;;;;5012934;28;19926;-72
2022/03/29 08:49:13;;;;;;;;;;;8.70;99.90;;;;;;5029084;28;20040;-71
2022/03/29 08:51:39;;;;;;;;;;;8.90;99.90;;;;;;5026855;28;19921;-74
2022/03/29 08:54:05;;;;;;;;;;;8.90;99.90;;;;;;5011065;28;19928;-68
2022/03/29 08:56:30;;;;;;;;;;;9.10;99.90;;;;;;5012301;28;19921;-72
2022/03/29 08:58:56;;;;;;;;;;;9.20;99.90;;;;;;5032240;28;19925;-70
2022/03/29 09:01:23;;;;;;;;;;;9.30;99.90;;;;;;5047722;28;19921;-71
2022/03/29 09:04:05;;;;;;;;;;;9.40;99.90;;;;;;5022232;28;19922;-72
2022/03/29 09:06:31;;;;;;;;;;;9.50;99.90;;;;;;5010300;28;19941;-73
2022/03/29 09:08:56;;;;;;;;;;;9.70;99.90;;;;;;5028273;28;20248;-70
2022/03/29 09:11:22;;;;;;;;;;;9.80;99.90;;;;;;5025826;28;20653;-71
2022/03/29 09:14:08;;;;;;;;;;;9.80;99.90;;;;;;5011114;28;19918;-71
2022/03/29 09:16:34;;;;;;;;;;;9.80;99.90;;;;;;5010633;28;20439;-71
2022/03/29 09:19:00;;;;;;;;;;;9.80;99.90;;;;;;5027288;28;19929;-71
2022/03/29 09:21:27;;;;;;;;;;;9.90;99.90;;;;;;5012441;28;20013;-70
2022/03/29 09:24:17;;;;;;;;;;;9.90;99.90;;;;;;5011182;28;19921;-72
2022/03/29 09:26:43;;;;;;;;;;;10.00;99.90;;;;;;5013802;28;20015;-70
2022/03/29 09:29:13;;;;;;;;;;;10.20;99.90;;;;;;5022688;28;20348;-71
2022/03/29 09:31:39;;;;;;;;;;;10.50;99.90;;;;;;5044217;28;19921;-70
2022/03/29 09:34:11;;;;;;;;;;;10.90;99.90;;;;;;5026663;28;19929;-70
2022/03/29 09:36:48;;;;;;;;;;;11.00;99.90;;;;;;5010806;28;19921;-72
2022/03/29 09:39:29;;;;;;;;;;;11.10;99.90;;;;;;5014052;28;20008;-70
2022/03/29 09:41:56;;;;;;;;;;;11.20;99.90;;;;;;5017179;28;19976;-70
2022/03/29 09:44:31;;;;;;;;;;;11.10;99.90;;;;;;5015253;28;20015;-70
2022/03/29 09:47:04;;;;;;;;;;;11.10;99.90;;;;;;5015445;28;19922;-71
2022/03/29 09:49:50;;;;;;;;;;;11.20;99.90;;;;;;5014874;28;19971;-71
2022/03/29 09:52:16;;;;;;;;;;;11.30;99.90;;;;;;5010979;28;19925;-73
2022/03/29 09:55:02;;;;;;;;;;;11.50;99.90;;;;;;5014750;28;20467;-72
2022/03/29 09:57:34;;;;;;;;;;;11.80;99.90;;;;;;5015724;28;19944;-68
2022/03/29 10:00:00;;;;;;;;;;;12.00;99.90;;;;;;5030159;28;20265;-71
2022/03/29 10:02:32;;;;;;;;;;;12.00;99.90;;;;;;5013141;28;19967;-72
2022/03/29 10:04:58;;;;;;;;;;;12.00;99.90;;;;;;5030976;28;20324;-72
2022/03/29 10:07:24;;;;;;;;;;;12.10;99.90;;;;;;5030079;28;19922;-71
2022/03/29 10:09:49;;;;;;;;;;;12.20;99.90;;;;;;5015438;28;19921;-70
2022/03/29 10:12:19;;;;;;;;;;;12.40;99.90;;;;;;5032823;28;19953;-75
2022/03/29 10:14:46;;;;;;;;;;;12.70;99.90;;;;;;5029751;28;19929;-75
2022/03/29 10:17:12;;;;;;;;;;;12.90;99.90;;;;;;5030330;28;20296;-74
2022/03/29 10:19:38;;;;;;;;;;;12.80;99.90;;;;;;5030024;28;20332;-73
2022/03/29 10:22:05;;;;;;;;;;;13.60;99.90;;;;;;5014805;28;19921;-70
2022/03/29 10:24:31;;;;;;;;;;;12.60;99.90;;;;;;5028364;28;20380;-70
2022/03/29 10:26:59;;;;;;;;;;;12.60;99.90;;;;;;5015873;28;19926;-70
2022/03/29 10:29:25;;;;;;;;;;;12.70;99.90;;;;;;5010485;28;19925;-71
2022/03/29 10:32:00;;;;;;;;;;;12.90;99.90;;;;;;5009525;28;19932;-70
2022/03/29 10:34:30;;;;;;;;;;;13.50;99.90;;;;;;5011351;28;19987;-67
2022/03/29 10:36:59;;;;;;;;;;;14.10;99.90;;;;;;5008540;28;19925;-76
2022/03/29 10:39:41;;;;;;;;;;;14.20;99.90;;;;;;5011899;28;20417;-78
2022/03/29 10:42:30;;;;;;;;;;;14.20;99.90;;;;;;5004167;28;19921;-75
2022/03/29 10:45:16;;;;;;;;;;;14.50;99.90;;;;;;5009284;28;19929;-76
2022/03/29 10:47:43;;;;;;;;;;;14.90;99.90;;;;;;5009611;28;19929;-78
2022/03/29 10:50:10;;;;;;;;;;;16.30;99.90;;;;;;5019619;28;19980;-71
2022/03/29 10:52:43;;;;;;;;;;;15.80;99.90;;;;;;5025018;28;20015;-70
2022/03/29 10:55:15;;;;;;;;;;;15.50;99.90;;;;;;5027124;28;20020;-71
2022/03/29 10:57:40;;;;;;;;;;;14.90;99.90;;;;;;5003051;28;20450;-71
2022/03/29 11:00:06;;;;;;;;;;;14.50;99.90;;;;;;4998351;28;20008;-71
2022/03/29 11:02:32;;;;;;;;;;;14.10;99.90;;;;;;5010076;28;19925;-71
2022/03/29 11:05:04;;;;;;;;;;;13.70;99.90;;;;;;5009442;28;20396;-71
2022/03/29 11:07:33;;;;;;;;;;;13.50;99.90;;;;;;5006515;28;19921;-71
2022/03/29 11:10:12;;;;;;;;;;;13.20;99.90;;;;;;5005553;28;20678;-71
2022/03/29 11:12:38;;;;;;;;;;;13.10;99.90;;;;;;5002978;28;19921;-71
2022/03/29 11:15:24;;;;;;;;;;;13.10;99.90;;;;;;5000361;28;19925;-70
2022/03/29 11:17:50;;;;;;;;;;;13.30;99.90;;;;;;4999952;28;19925;-70
2022/03/29 11:20:27;;;;;;;;;;;13.50;99.90;;;;;;5001686;28;19925;-73
2022/03/29 11:22:52;;;;;;;;;;;13.90;99.90;;;;;;5001522;28;19933;-71
2022/03/29 11:25:20;;;;;;;;;;;13.90;99.90;;;;;;4998917;28;19930;-70
2022/03/29 11:27:48;;;;;;;;;;;13.70;99.90;;;;;;5005111;28;20412;-70
2022/03/29 11:30:14;;;;;;;;;;;13.70;99.90;;;;;;5011220;28;19922;-70
2022/03/29 11:32:41;;;;;;;;;;;13.70;99.90;;;;;;5013435;28;19936;-71
2022/03/29 11:35:07;;;;;;;;;;;13.40;99.90;;;;;;5014107;28;19928;-72
2022/03/29 11:37:40;;;;;;;;;;;13.10;99.90;;;;;;5013539;28;19953;-71
2022/03/29 11:40:08;;;;;;;;;;;13.00;99.90;;;;;;5020521;28;19917;-70
2022/03/29 11:42:44;;;;;;;;;;;12.90;99.90;;;;;;5008783;28;19925;-70
2022/03/29 11:45:11;;;;;;;;;;;12.70;99.90;;;;;;5008092;28;19925;-70
2022/03/29 11:47:40;;;;;;;;;;;12.40;99.90;;;;;;5006025;28;19984;-70
2022/03/29 11:50:05;;;;;;;;;;;12.30;99.90;;;;;;5000808;28;20270;-70
2022/03/29 11:52:34;;;;;;;;;;;12.30;99.90;;;;;;5009052;28;19936;-70
2022/03/29 11:55:00;;;;;;;;;;;12.30;99.90;;;;;;5007439;28;19979;-70
2022/03/29 11:57:27;;;;;;;;;;;12.30;99.90;;;;;;5009209;28;19929;-70
2022/03/29 11:59:53;;;;;;;;;;;12.30;99.90;;;;;;5009884;28;19929;-69
2022/03/29 12:02:21;;;;;;;;;;;12.40;99.90;;;;;;5010203;28;19926;-70
2022/03/29 12:04:48;;;;;;;;;;;12.40;99.90;;;;;;5004088;28;19925;-70
2022/03/29 12:07:14;;;;;;;;;;;12.40;99.90;;;;;;5009153;28;19925;-70
2022/03/29 12:09:45;;;;;;;;;;;12.40;99.90;;;;;;5008284;28;20365;-70
2022/03/29 12:12:10;;;;;;;;;;;12.40;99.90;;;;;;4996222;28;19933;-70
2022/03/29 12:14:36;;;;;;;;;;;12.40;99.90;;;;;;5009004;28;19922;-69
2022/03/29 12:17:07;;;;;;;;;;;12.30;99.90;;;;;;4994268;28;19926;-70
2022/03/29 12:19:37;;;;;;;;;;;12.40;99.90;;;;;;5008344;28;19926;-70
2022/03/29 12:22:04;;;;;;;;;;;12.60;99.90;;;;;;5011702;28;20399;-70
2022/03/29 12:24:34;;;;;;;;;;;12.60;99.90;;;;;;5011408;28;20336;-70
2022/03/29 12:27:04;;;;;;;;;;;12.80;99.90;;;;;;5028269;28;20399;-70
2022/03/29 12:29:30;;;;;;;;;;;13.00;99.90;;;;;;5012449;28;19921;-70
2022/03/29 12:31:56;;;;;;;;;;;13.40;99.90;;;;;;5013252;28;20084;-70
2022/03/29 12:34:23;;;;;;;;;;;13.80;99.90;;;;;;5012554;28;20040;-70
2022/03/29 12:36:50;;;;;;;;;;;14.40;99.90;;;;;;5011250;28;19932;-70
2022/03/29 12:39:15;;;;;;;;;;;15.10;99.10;;;;;;5007837;28;19925;-71
2022/03/29 12:41:44;;;;;;;;;;;16.10;99.50;;;;;;5022172;28;19925;-71
2022/03/29 12:44:15;;;;;;;;;;;16.90;97.70;;;;;;5003182;28;19956;-70
2022/03/29 12:46:46;;;;;;;;;;;17.00;97.30;;;;;;5010429;28;20289;-70
2022/03/29 12:49:13;;;;;;;;;;;17.10;96.00;;;;;;5008792;28;19929;-70
2022/03/29 12:51:39;;;;;;;;;;;17.10;94.40;;;;;;4996799;28;19929;-71
2022/03/29 12:54:05;;;;;;;;;;;17.40;95.40;;;;;;5017842;28;19928;-71
2022/03/29 12:56:31;;;;;;;;;;;17.60;94.90;;;;;;5010140;28;19922;-70
2022/03/29 12:58:58;;;;;;;;;;;17.60;94.20;;;;;;5027939;28;19921;-70
2022/03/29 13:01:35;;;;;;;;;;;17.60;94.90;;;;;;5005065;28;19922;-71
2022/03/29 13:04:04;;;;;;;;;;;17.40;94.20;;;;;;4992615;28;19921;-70
2022/03/29 13:06:43;;;;;;;;;;;17.10;93.90;;;;;;5026102;28;19921;-70
2022/03/29 13:09:13;;;;;;;;;;;16.90;94.50;;;;;;5012534;28;19921;-70
2022/03/29 13:11:39;;;;;;;;;;;16.90;95.30;;;;;;5002699;28;19928;-71
2022/03/29 13:14:06;;;;;;;;;;;16.60;95.70;;;;;;5014471;28;19969;-71
2022/03/29 13:16:32;;;;;;;;;;;16.50;95.50;;;;;;5030400;28;19921;-70
2022/03/29 13:18:57;;;;;;;;;;;16.20;95.00;;;;;;5028475;28;19925;-71
2022/03/29 13:21:24;;;;;;;;;;;16.30;96.20;;;;;;5021295;28;20319;-71
2022/03/29 13:23:54;;;;;;;;;;;16.10;95.90;;;;;;5015787;28;19921;-70
2022/03/29 13:26:21;;;;;;;;;;;15.80;96.20;;;;;;5006212;28;19968;-71
2022/03/29 13:28:48;;;;;;;;;;;15.60;95.80;;;;;;5008459;28;19956;-72
2022/03/29 13:31:14;;;;;;;;;;;15.40;96.30;;;;;;5030888;28;19928;-72
2022/03/29 13:33:44;;;;;;;;;;;15.30;96.80;;;;;;5017779;28;19925;-70
2022/03/29 13:36:12;;;;;;;;;;;15.40;97.00;;;;;;5050925;28;19921;-75
2022/03/29 13:38:39;;;;;;;;;;;15.40;98.70;;;;;;5033577;28;19924;-72
2022/03/29 13:41:05;;;;;;;;;;;15.60;97.90;;;;;;5011312;28;20388;-74
2022/03/29 13:43:33;;;;;;;;;;;15.60;97.30;;;;;;5013139;28;19929;-71
2022/03/29 13:45:59;;;;;;;;;;;15.60;97.20;;;;;;5012325;28;19925;-68
2022/03/29 13:48:25;;;;;;;;;;;15.60;97.30;;;;;;5000457;28;20582;-74
2022/03/29 13:50:50;;;;;;;;;;;15.60;97.60;;;;;;4994108;28;20386;-76
2022/03/29 13:53:20;;;;;;;;;;;15.40;97.60;;;;;;5018886;28;19925;-73
2022/03/29 13:55:46;;;;;;;;;;;15.20;97.80;;;;;;5005431;28;20384;-72
2022/03/29 13:58:12;;;;;;;;;;;15.20;98.20;;;;;;5015369;28;19980;-73
2022/03/29 14:00:37;;;;;;;;;;;15.10;98.00;;;;;;5007802;28;19921;-73
2022/03/29 14:03:04;;;;;;;;;;;14.80;98.00;;;;;;5018433;28;20295;-74
2022/03/29 14:05:30;;;;;;;;;;;14.80;97.80;;;;;;5017315;28;20384;-73
2022/03/29 14:07:56;;;;;;;;;;;14.80;98.00;;;;;;5015929;28;19926;-71
2022/03/29 14:10:22;;;;;;;;;;;14.70;98.30;;;;;;5018383;28;19979;-73
2022/03/29 14:12:47;;;;;;;;;;;14.70;98.10;;;;;;5030713;28;20033;-71
2022/03/29 14:15:13;;;;;;;;;;;14.30;98.00;;;;;;5033893;28;19925;-71
2022/03/29 14:17:38;;;;;;;;;;;14.30;98.90;;;;;;5014066;28;20392;-72
2022/03/29 14:20:05;;;;;;;;;;;14.40;98.00;;;;;;5023871;28;20034;-70
2022/03/29 14:22:32;;;;;;;;;;;14.30;98.20;;;;;;5020579;28;19948;-70
2022/03/29 14:24:58;;;;;;;;;;;14.20;98.90;;;;;;5009975;28;19925;-71
2022/03/29 14:27:24;;;;;;;;;;;14.20;98.90;;;;;;5010340;28;19929;-68
2022/03/29 14:29:50;;;;;;;;;;;14.30;99.30;;;;;;5009666;28;19925;-70
2022/03/29 14:32:15;;;;;;;;;;;14.40;99.40;;;;;;5025027;28;19952;-68